Chatham, Illinois
Current Conditions -  °F | °C
As of 6:52 PM on Friday 21 Nov 2014 (Local Time) from KSPI Reporting Station
Overcast Overcast  
Wind Chill: 30°   Ceiling: 2700
Heat Index: 38°   Visibility: 10mi
Dew Point: 17°   Wind: 13mph
Humidity: 43%   Direction: 150°SSE
Pressure: 30.29"   Gusts: NA
Location:  39.68°N, 89.7°W
Report Text: KSPI 220052Z 15011KT 10SM BKN027 OVC040 03/M08 A3029 RMK AO2 SLP263 T00331083
Loading
Personal Weather Stations






























Interactive Weather Map New forecast layout! Learn more

10-Day Weather Forecast

Advertisements
Track Severe Weather on mobile